Thunder radar more information blitzortung!


Radar de pluja more information rain snow radar


Visita la nostra xarxa de llocs de meteo:

Template documentation
and downloads

And another site



No particular awareness of the weather is required.    There are no Weather-warnings

Pagina Historial Weather Underground text

Diari Resum Agost 12, 2017 Unitats:  Mètric    Imperial   Tant
« Previous Dia
SegĂźent Dia »
Diari Setmana Mensual Anual Personalitzada
  Maxima: Minima: Media:
Temperatura: 29.6 °C 16.5 °C 24 °C
Punt de rosada: 16.2 °C 9.4 °C 12.5 °C
Humitat: 82 % 30 % 51 %
Wind Speed: 16.7 km/h 0.0 km/h 6.3 km/h
RĂ fegues de vent: 16.7 km/h - -
Vent:- - SSW
Pression baro: 1021.9 hPa 1016.8 hPa -
Precipitacions: 0.0 mm    
Historical Graphs
 
 
Dades de taula per Agost 12, 2017
Temps Temperatura Punt de rosada Pression baro Vent Wind Speed RĂ fegues de vent Humitat Rainfall Rate (Hourly)
00:00 17.7 °C 13.4 °C 1019.9 hPa Calm     76 % 0.0 mm
00:03 20.0 °C 13.0 °C 1020.9 hPa NE 3.9 km/h 3.9 km/h 64 % 0.0 mm
00:08 19.9 °C 13.1 °C 1020.9 hPa NE 3.7 km/h   65 % 0.0 mm
00:10 17.6 °C 13.5 °C 1019.9 hPa Calm     77 % 0.0 mm
00:20 17.5 °C 13.4 °C 1018.8 hPa Calm     77 % 0.0 mm
00:30 17.6 °C 13.5 °C 1018.8 hPa SSW 1.6 km/h 1.6 km/h 77 % 0.0 mm
00:40 17.4 °C 13.3 °C 1019.9 hPa South 1.6 km/h 3.2 km/h 77 % 0.0 mm
00:50 17.2 °C 13.3 °C 1019.9 hPa Calm   3.2 km/h 78 % 0.0 mm
01:00 17.2 °C 13.3 °C 1019.9 hPa Calm     78 % 0.0 mm
01:10 17.1 °C 13.2 °C 1018.8 hPa Calm   1.6 km/h 78 % 0.0 mm
01:20 17.0 °C 13.1 °C 1019.9 hPa SSW 1.6 km/h 3.2 km/h 78 % 0.0 mm
01:30 16.7 °C 13.1 °C 1019.9 hPa Calm   4.8 km/h 79 % 0.0 mm
01:40 16.7 °C 13.2 °C 1019.9 hPa Calm     80 % 0.0 mm
01:50 16.5 °C 13.1 °C 1019.9 hPa SW 3.2 km/h 3.2 km/h 80 % 0.0 mm
02:00 16.5 °C 13.2 °C 1019.9 hPa Calm   1.6 km/h 81 % 0.0 mm
02:10 16.5 °C 13.2 °C 1019.9 hPa SW 1.6 km/h 3.2 km/h 81 % 0.0 mm
02:20 16.6 °C 13.3 °C 1020.9 hPa Calm     81 % 0.0 mm
02:30 16.9 °C 13.8 °C 1020.9 hPa Calm   1.6 km/h 82 % 0.0 mm
02:40 17.1 °C 13.8 °C 1020.9 hPa Calm   1.6 km/h 81 % 0.0 mm
02:50 17.3 °C 14.0 °C 1020.9 hPa Calm     81 % 0.0 mm
03:00 18.0 °C 14.5 °C 1020.9 hPa SE 1.6 km/h 3.2 km/h 80 % 0.0 mm
03:10 18.3 °C 14.4 °C 1020.9 hPa South 1.6 km/h 3.2 km/h 78 % 0.0 mm
03:20 18.2 °C 14.3 °C 1020.9 hPa SW 3.2 km/h 3.2 km/h 78 % 0.0 mm
03:30 18.7 °C 14.8 °C 1020.9 hPa Calm   3.2 km/h 78 % 0.0 mm
03:40 19.1 °C 14.9 °C 1020.9 hPa Calm   3.2 km/h 77 % 0.0 mm
03:50 20.1 °C 15.6 °C 1020.9 hPa SSW 1.6 km/h 1.6 km/h 75 % 0.0 mm
04:00 20.4 °C 15.4 °C 1020.9 hPa SSE 3.2 km/h 4.8 km/h 73 % 0.0 mm
04:10 20.6 °C 15.2 °C 1021.9 hPa SE 3.2 km/h 3.2 km/h 71 % 0.0 mm
04:20 21.2 °C 15.7 °C 1021.9 hPa SE 1.6 km/h 6.4 km/h 71 % 0.0 mm
04:30 21.4 °C 15.5 °C 1021.9 hPa SE 1.6 km/h 4.8 km/h 69 % 0.0 mm
04:40 21.7 °C 15.6 °C 1021.9 hPa ENE 4.8 km/h 4.8 km/h 68 % 0.0 mm
04:50 21.7 °C 15.3 °C 1021.9 hPa NNE 3.2 km/h 4.8 km/h 67 % 0.0 mm
05:00 21.9 °C 15.5 °C 1021.9 hPa NNE 3.2 km/h 8.0 km/h 67 % 0.0 mm
05:10 22.6 °C 15.7 °C 1021.9 hPa NE 1.6 km/h 6.4 km/h 65 % 0.0 mm
05:20 23.1 °C 15.9 °C 1021.9 hPa NE 1.6 km/h 4.8 km/h 64 % 0.0 mm
05:30 22.7 °C 15.3 °C 1021.9 hPa NNE 4.8 km/h 6.4 km/h 63 % 0.0 mm
05:40 23.1 °C 15.9 °C 1021.9 hPa NE 1.6 km/h 6.4 km/h 64 % 0.0 mm
05:50 23.6 °C 16.2 °C 1021.9 hPa NE 3.2 km/h 4.8 km/h 63 % 0.0 mm
06:00 24.1 °C 15.8 °C 1021.9 hPa NNE 3.2 km/h 4.8 km/h 60 % 0.0 mm
11:07 23.4 °C 14.9 °C 1020.9 hPa SE 5.6 km/h 5.6 km/h 59 % 0.0 mm
11:12 24.3 °C 15.8 °C 1020.9 hPa NNE 5.6 km/h 5.6 km/h 59 % 0.0 mm
11:17 24.2 °C 15.2 °C 1020.9 hPa NE 5.8 km/h 5.8 km/h 57 % 0.0 mm
11:22 24.4 °C 15.3 °C 1020.9 hPa NNW 5.6 km/h 5.6 km/h 57 % 0.0 mm
11:27 24.6 °C 15.2 °C 1020.9 hPa NNE 7.4 km/h 7.4 km/h 56 % 0.0 mm
11:32 24.6 °C 14.9 °C 1020.9 hPa ESE 9.3 km/h 9.3 km/h 55 % 0.0 mm
11:37 25.1 °C 15.1 °C 1020.9 hPa ENE 5.6 km/h 5.6 km/h 54 % 0.0 mm
11:42 25.5 °C 14.6 °C 1020.9 hPa SSW 6.9 km/h 6.9 km/h 51 % 0.0 mm
11:47 25.3 °C 13.2 °C 1020.9 hPa ESE 7.4 km/h 7.4 km/h 47 % 0.0 mm
11:52 25.6 °C 13.8 °C 1020.9 hPa South 3.7 km/h 3.7 km/h 48 % 0.0 mm
11:57 26.2 °C 14.3 °C 1020.9 hPa WSW 5.6 km/h 5.6 km/h 48 % 0.0 mm
12:02 26.6 °C 14.3 °C 1020.9 hPa SSW 12.6 km/h 12.6 km/h 47 % 0.0 mm
12:07 26.6 °C 14.3 °C 1020.9 hPa SW 5.6 km/h 5.6 km/h 47 % 0.0 mm
12:12 26.1 °C 13.6 °C 1020.9 hPa NE 7.4 km/h 7.4 km/h 46 % 0.0 mm
12:17 26.1 °C 13.6 °C 1020.9 hPa ESE 3.7 km/h 3.7 km/h 46 % 0.0 mm
12:22 26.5 °C 13.9 °C 1020.9 hPa NNW 3.7 km/h 3.7 km/h 46 % 0.0 mm
12:27 26.9 °C 13.9 °C 1020.9 hPa West 3.7 km/h 3.9 km/h 45 % 0.0 mm
12:32 27.4 °C 14.1 °C 1019.9 hPa WSW 9.0 km/h 9.0 km/h 44 % 0.0 mm
12:34 27.2 °C 13.2 °C 1019.9 hPa WSW 9.3 km/h 9.3 km/h 42 % 0.0 mm
12:39 27.4 °C 13.7 °C 1019.9 hPa WSW 7.9 km/h 7.9 km/h 43 % 0.0 mm
12:44 27.5 °C 13.4 °C 1019.9 hPa WSW 9.3 km/h 9.3 km/h 42 % 0.0 mm
12:49 27.2 °C 12.8 °C 1019.9 hPa West 9.3 km/h 9.3 km/h 41 % 0.0 mm
12:54 27.7 °C 12.9 °C 1019.9 hPa WSW 3.7 km/h 3.7 km/h 40 % 0.0 mm
12:59 27.1 °C 12.3 °C 1019.9 hPa WSW 3.7 km/h 3.7 km/h 40 % 0.0 mm
13:04 27.3 °C 12.5 °C 1019.9 hPa WNW 5.6 km/h 5.6 km/h 40 % 0.0 mm
13:09 28.3 °C 13.4 °C 1019.9 hPa East 5.6 km/h 5.6 km/h 40 % 0.0 mm
13:14 28.2 °C 13.3 °C 1019.9 hPa SSE 5.6 km/h 5.6 km/h 40 % 0.0 mm
13:19 28.6 °C 13.3 °C 1019.9 hPa South 5.6 km/h 5.6 km/h 39 % 0.0 mm
13:24 28.4 °C 13.9 °C 1019.9 hPa SSE 9.3 km/h 9.3 km/h 41 % 0.0 mm
13:29 27.1 °C 13.1 °C 1018.8 hPa East 11.1 km/h 11.1 km/h 42 % 0.0 mm
13:34 26.5 °C 13.3 °C 1018.8 hPa ENE 12.2 km/h 12.2 km/h 44 % 0.0 mm
13:39 26.7 °C 13.4 °C 1018.8 hPa ESE 14.8 km/h 14.8 km/h 44 % 0.0 mm
13:44 26.5 °C 13.3 °C 1018.8 hPa ESE 16.7 km/h 16.7 km/h 44 % 0.0 mm
13:49 26.1 °C 12.9 °C 1018.8 hPa SSE 14.8 km/h 14.8 km/h 44 % 0.0 mm
13:54 26.4 °C 13.5 °C 1018.8 hPa SE 9.3 km/h 9.3 km/h 45 % 0.0 mm
13:59 26.7 °C 13.8 °C 1019.9 hPa South 7.4 km/h 7.4 km/h 45 % 0.0 mm
14:04 27.1 °C 13.8 °C 1019.9 hPa SW 9.3 km/h 9.3 km/h 44 % 0.0 mm
14:09 27.8 °C 14.1 °C 1019.9 hPa SSW 13.0 km/h 13.0 km/h 43 % 0.0 mm
14:14 27.8 °C 13.7 °C 1019.9 hPa SSW 9.3 km/h 9.3 km/h 42 % 0.0 mm
14:19 27.7 °C 14.0 °C 1019.9 hPa WNW 7.4 km/h 7.4 km/h 43 % 0.0 mm
14:24 28.6 °C 14.4 °C 1019.9 hPa SW 13.0 km/h 13.0 km/h 42 % 0.0 mm
14:29 28.5 °C 14.3 °C 1018.8 hPa WNW 7.4 km/h 7.4 km/h 42 % 0.0 mm
14:34 28.5 °C 14.3 °C 1018.8 hPa SW 5.6 km/h 5.6 km/h 42 % 0.0 mm
14:39 29.5 °C 14.5 °C 1018.8 hPa WSW 9.5 km/h 9.5 km/h 40 % 0.0 mm
14:44 29.2 °C 14.2 °C 1018.8 hPa NW 5.6 km/h 5.6 km/h 40 % 0.0 mm
14:49 28.6 °C 14.1 °C 1018.8 hPa West 6.4 km/h 6.4 km/h 41 % 0.0 mm
14:54 29.0 °C 13.7 °C 1018.8 hPa SSW 5.6 km/h 5.6 km/h 39 % 0.0 mm
14:59 28.1 °C 12.8 °C 1018.8 hPa ENE 9.3 km/h 9.3 km/h 39 % 0.0 mm
15:04 29.0 °C 12.8 °C 1018.8 hPa SW 9.3 km/h 9.3 km/h 37 % 0.0 mm
15:09 28.8 °C 12.7 °C 1018.8 hPa SSW 11.1 km/h 11.1 km/h 37 % 0.0 mm
15:14 28.2 °C 12.1 °C 1018.8 hPa ESE 5.8 km/h 5.8 km/h 37 % 0.0 mm
15:19 28.1 °C 12.1 °C 1018.8 hPa South 7.4 km/h 7.4 km/h 37 % 0.0 mm
15:24 29.0 °C 12.8 °C 1018.8 hPa NW 3.7 km/h   37 % 0.0 mm
15:29 28.1 °C 12.8 °C 1018.8 hPa West 9.3 km/h 9.3 km/h 39 % 0.0 mm
15:34 28.5 °C 13.2 °C 1018.8 hPa SSW 7.4 km/h 8.7 km/h 39 % 0.0 mm
15:39 28.8 °C 12.2 °C 1018.8 hPa SSE 9.3 km/h 9.3 km/h 36 % 0.0 mm
15:44 29.3 °C 12.3 °C 1018.8 hPa SSE 5.6 km/h 5.6 km/h 35 % 0.0 mm
15:49 28.8 °C 12.7 °C 1018.8 hPa WSW 7.4 km/h 7.4 km/h 37 % 0.0 mm
15:54 29.2 °C 11.7 °C 1018.8 hPa SW 7.4 km/h 7.4 km/h 34 % 0.0 mm
15:55 29.3 °C 12.3 °C 1018.8 hPa SSE 11.1 km/h 11.1 km/h 35 % 0.0 mm
16:00 29.3 °C 11.8 °C 1017.8 hPa SW 14.0 km/h 14.0 km/h 34 % 0.0 mm
16:05 29.2 °C 11.3 °C 1017.8 hPa East 13.0 km/h 13.0 km/h 33 % 0.0 mm
16:10 29.6 °C 11.2 °C 1017.8 hPa South 13.0 km/h 13.0 km/h 32 % 0.0 mm
16:15 29.6 °C 11.2 °C 1017.8 hPa West 9.3 km/h 9.3 km/h 32 % 0.0 mm
16:20 29.2 °C 10.3 °C 1017.8 hPa SW 16.7 km/h 16.7 km/h 31 % 0.0 mm
16:25 29.0 °C 10.2 °C 1017.8 hPa SW 15.8 km/h 15.8 km/h 31 % 0.0 mm
16:30 29.0 °C 10.2 °C 1017.8 hPa SW 11.4 km/h 11.4 km/h 31 % 0.0 mm
16:35 29.1 °C 9.8 °C 1017.8 hPa South 13.0 km/h 13.0 km/h 30 % 0.0 mm
16:40 29.2 °C 10.3 °C 1017.8 hPa South 13.0 km/h 13.0 km/h 31 % 0.0 mm
16:45 29.0 °C 10.2 °C 1017.8 hPa SW 13.7 km/h 13.7 km/h 31 % 0.0 mm
16:50 28.7 °C 9.9 °C 1017.8 hPa West 13.0 km/h 13.0 km/h 31 % 0.0 mm
16:55 29.2 °C 10.3 °C 1017.8 hPa WSW 13.0 km/h 13.0 km/h 31 % 0.0 mm
17:00 28.9 °C 10.1 °C 1017.8 hPa WSW 7.4 km/h 7.4 km/h 31 % 0.0 mm
17:05 29.0 °C 10.2 °C 1017.8 hPa SW 13.0 km/h 13.0 km/h 31 % 0.0 mm
17:10 29.1 °C 10.2 °C 1017.8 hPa WSW 7.4 km/h 7.4 km/h 31 % 0.0 mm
17:15 28.7 °C 9.9 °C 1017.8 hPa WSW 9.3 km/h 9.3 km/h 31 % 0.0 mm
17:20 28.2 °C 9.4 °C 1017.8 hPa SSE 9.3 km/h 9.3 km/h 31 % 0.0 mm
17:25 28.6 °C 10.3 °C 1017.8 hPa West 7.4 km/h 7.4 km/h 32 % 0.0 mm
17:30 28.6 °C 10.7 °C 1017.8 hPa SW 13.0 km/h 13.0 km/h 33 % 0.0 mm
17:35 28.3 °C 10.5 °C 1017.8 hPa SW 9.3 km/h 9.3 km/h 33 % 0.0 mm
17:40 28.4 °C 10.6 °C 1017.8 hPa West 13.0 km/h 13.0 km/h 33 % 0.0 mm
17:45 28.3 °C 10.9 °C 1017.8 hPa WSW 9.3 km/h 9.3 km/h 34 % 0.0 mm
17:50 28.2 °C 10.8 °C 1017.8 hPa SW 11.1 km/h 11.1 km/h 34 % 0.0 mm
17:55 27.9 °C 10.6 °C 1017.8 hPa SSW 9.3 km/h 9.3 km/h 34 % 0.0 mm
18:00 27.8 °C 10.5 °C 1017.8 hPa SSW 11.1 km/h 11.1 km/h 34 % 0.0 mm
18:05 27.9 °C 11.0 °C 1017.8 hPa SSW 11.1 km/h 11.1 km/h 35 % 0.0 mm
18:10 27.8 °C 10.9 °C 1017.8 hPa SW 14.8 km/h 14.8 km/h 35 % 0.0 mm
18:15 27.9 °C 11.0 °C 1016.8 hPa SW 9.3 km/h 9.3 km/h 35 % 0.0 mm
18:20 27.7 °C 11.3 °C 1016.8 hPa SSW 9.3 km/h 9.3 km/h 36 % 0.0 mm
18:25 27.4 °C 10.6 °C 1016.8 hPa South 13.0 km/h 13.0 km/h 35 % 0.0 mm
18:30 27.5 °C 11.1 °C 1017.8 hPa SW 9.3 km/h 9.3 km/h 36 % 0.0 mm
18:35 27.6 °C 11.2 °C 1017.8 hPa SSE 6.1 km/h 6.1 km/h 36 % 0.0 mm
18:40 27.8 °C 11.3 °C 1017.8 hPa SW 11.4 km/h 11.4 km/h 36 % 0.0 mm
18:45 27.5 °C 11.1 °C 1017.8 hPa SSW 7.4 km/h 7.4 km/h 36 % 0.0 mm
18:50 27.2 °C 10.8 °C 1017.8 hPa SW 9.3 km/h 9.3 km/h 36 % 0.0 mm
18:55 26.8 °C 10.9 °C 1017.8 hPa SW 11.1 km/h 11.1 km/h 37 % 0.0 mm
19:00 26.7 °C 11.2 °C 1017.8 hPa South 7.4 km/h 7.4 km/h 38 % 0.0 mm
19:05 27.0 °C 11.1 °C 1017.8 hPa South 7.4 km/h 7.4 km/h 37 % 0.0 mm
19:10 27.0 °C 11.1 °C 1017.8 hPa West 7.4 km/h 7.4 km/h 37 % 0.0 mm
19:15 26.9 °C 11.4 °C 1017.8 hPa SW 5.6 km/h 5.8 km/h 38 % 0.0 mm
19:20 26.8 °C 11.7 °C 1017.8 hPa SSW 3.9 km/h 3.9 km/h 39 % 0.0 mm
19:25 26.5 °C 11.4 °C 1017.8 hPa SW 9.3 km/h 9.3 km/h 39 % 0.0 mm
19:30 26.4 °C 11.3 °C 1017.8 hPa SW 5.6 km/h 5.6 km/h 39 % 0.0 mm
19:35 26.2 °C 11.2 °C 1017.8 hPa South 7.4 km/h 7.4 km/h 39 % 0.0 mm
19:40 25.9 °C 10.9 °C 1017.8 hPa WSW 9.3 km/h 9.3 km/h 39 % 0.0 mm
19:45 25.6 °C 10.6 °C 1018.8 hPa SW 9.3 km/h 9.3 km/h 39 % 0.0 mm
19:50 25.5 °C 10.9 °C 1018.8 hPa SSW 14.8 km/h 14.8 km/h 40 % 0.0 mm
19:55 25.2 °C 10.6 °C 1018.8 hPa SW 13.0 km/h 13.0 km/h 40 % 0.0 mm
20:00 25.0 °C 10.8 °C 1017.8 hPa SW 7.4 km/h 7.4 km/h 41 % 0.0 mm
20:05 24.8 °C 11.0 °C 1017.8 hPa SW 9.3 km/h 9.3 km/h 42 % 0.0 mm
20:10 24.6 °C 10.8 °C 1017.8 hPa SW 9.3 km/h 9.3 km/h 42 % 0.0 mm
20:15 24.3 °C 10.9 °C 1017.8 hPa WSW 13.0 km/h 13.0 km/h 43 % 0.0 mm
20:20 24.1 °C 10.7 °C 1017.8 hPa SSW 9.3 km/h 9.3 km/h 43 % 0.0 mm
20:25 24.0 °C 11.0 °C 1017.8 hPa SSW 13.0 km/h 13.0 km/h 44 % 0.0 mm
20:30 23.8 °C 11.2 °C 1017.8 hPa SW 7.4 km/h 7.4 km/h 45 % 0.0 mm
20:35 23.7 °C 11.1 °C 1017.8 hPa SW 5.6 km/h 5.8 km/h 45 % 0.0 mm
20:40 23.5 °C 10.9 °C 1017.8 hPa NW 9.3 km/h 9.3 km/h 45 % 0.0 mm
20:45 23.3 °C 11.0 °C 1017.8 hPa SW 9.3 km/h 9.3 km/h 46 % 0.0 mm
20:50 23.2 °C 10.9 °C 1017.8 hPa West 9.3 km/h 9.3 km/h 46 % 0.0 mm
20:55 23.0 °C 11.1 °C 1017.8 hPa SSW 7.4 km/h 7.4 km/h 47 % 0.0 mm
21:00 22.9 °C 11.3 °C 1018.8 hPa South 11.1 km/h 11.1 km/h 48 % 0.0 mm
21:05 22.7 °C 11.1 °C 1018.8 hPa SW 9.3 km/h 9.3 km/h 48 % 0.0 mm
21:10 22.6 °C 11.1 °C 1018.8 hPa SW 7.4 km/h 7.4 km/h 48 % 0.0 mm
21:11 22.6 °C 11.1 °C 1018.8 hPa WSW 6.1 km/h 6.1 km/h 48 % 0.0 mm
21:15 18.6 °C 11.9 °C 1019.9 hPa WSW 1.6 km/h 4.8 km/h 65 % 0.0 mm
21:16 22.5 °C 11.2 °C 1018.8 hPa SSW 9.3 km/h 9.3 km/h 49 % 0.0 mm
21:21 22.4 °C 11.2 °C 1018.8 hPa SSW 7.4 km/h 7.4 km/h 49 % 0.0 mm
21:25 18.5 °C 12.3 °C 1019.9 hPa Calm   3.2 km/h 67 % 0.0 mm
21:26 22.3 °C 11.4 °C 1018.8 hPa South 7.4 km/h 7.4 km/h 50 % 0.0 mm
21:31 22.2 °C 11.3 °C 1018.8 hPa SW 5.6 km/h 5.6 km/h 50 % 0.0 mm
21:35 18.4 °C 12.2 °C 1018.8 hPa Calm     67 % 0.0 mm
21:36 22.1 °C 11.5 °C 1018.8 hPa SW 7.4 km/h 7.4 km/h 51 % 0.0 mm
21:41 22.0 °C 11.4 °C 1018.8 hPa SW 6.9 km/h 6.9 km/h 51 % 0.0 mm
21:45 18.5 °C 12.5 °C 1018.8 hPa SE 1.6 km/h 3.2 km/h 68 % 0.0 mm
21:46 21.9 °C 11.3 °C 1018.8 hPa SW 9.3 km/h 9.3 km/h 51 % 0.0 mm
21:51 21.9 °C 11.6 °C 1018.8 hPa WSW 7.4 km/h 7.4 km/h 52 % 0.0 mm
21:55 18.6 °C 12.6 °C 1018.8 hPa NE 1.6 km/h 1.6 km/h 68 % 0.0 mm
21:56 21.8 °C 11.5 °C 1018.8 hPa SSW 5.6 km/h 5.6 km/h 52 % 0.0 mm
22:01 21.7 °C 11.7 °C 1019.9 hPa SW 7.6 km/h 7.6 km/h 53 % 0.0 mm
22:05 18.5 °C 12.5 °C 1018.8 hPa NNE 1.6 km/h 1.6 km/h 68 % 0.0 mm
22:06 21.7 °C 11.7 °C 1019.9 hPa WSW 9.3 km/h 9.3 km/h 53 % 0.0 mm
22:11 21.5 °C 11.8 °C 1019.9 hPa WSW 7.4 km/h 7.4 km/h 54 % 0.0 mm
22:15 18.3 °C 12.3 °C 1018.8 hPa Calm   3.2 km/h 68 % 0.0 mm
22:16 21.5 °C 11.8 °C 1019.9 hPa SW 3.7 km/h 3.9 km/h 54 % 0.0 mm
22:21 21.4 °C 11.7 °C 1019.9 hPa WSW 9.3 km/h 9.3 km/h 54 % 0.0 mm
22:25 17.9 °C 11.7 °C 1018.8 hPa WSW 3.2 km/h 3.2 km/h 67 % 0.0 mm
22:26 21.3 °C 11.9 °C 1019.9 hPa SW 3.9 km/h 3.9 km/h 55 % 0.0 mm
22:31 21.3 °C 11.9 °C 1019.9 hPa SSW 5.6 km/h 5.6 km/h 55 % 0.0 mm
22:35 17.9 °C 11.9 °C 1018.8 hPa Calm     68 % 0.0 mm
22:36 21.2 °C 11.8 °C 1019.9 hPa West 3.7 km/h 3.9 km/h 55 % 0.0 mm
22:41 21.2 °C 12.1 °C 1019.9 hPa WSW 3.9 km/h 3.9 km/h 56 % 0.0 mm
22:45 17.9 °C 11.9 °C 1018.8 hPa Calm     68 % 0.0 mm
22:46 21.1 °C 12.0 °C 1019.9 hPa WSW 3.7 km/h 3.7 km/h 56 % 0.0 mm
22:51 21.1 °C 12.0 °C 1019.9 hPa WSW 3.7 km/h 3.7 km/h 56 % 0.0 mm
22:55 18.1 °C 12.1 °C 1018.8 hPa WSW 1.6 km/h 3.2 km/h 68 % 0.0 mm
22:56 21.0 °C 12.2 °C 1019.9 hPa SW 3.7 km/h 3.7 km/h 57 % 0.0 mm
23:01 21.0 °C 12.2 °C 1019.9 hPa SW 3.7 km/h 3.7 km/h 57 % 0.0 mm
23:05 18.1 °C 12.1 °C 1018.8 hPa Calm   1.6 km/h 68 % 0.0 mm
23:06 21.0 °C 12.2 °C 1019.9 hPa Calm     57 % 0.0 mm
23:11 20.9 °C 12.1 °C 1019.9 hPa West 3.7 km/h 3.7 km/h 57 % 0.0 mm
23:15 18.1 °C 12.3 °C 1018.8 hPa Calm     69 % 0.0 mm
23:16 20.8 °C 12.2 °C 1019.9 hPa Calm     58 % 0.0 mm
23:21 20.8 °C 12.2 °C 1019.9 hPa SW 1.9 km/h 1.9 km/h 58 % 0.0 mm
23:25 18.0 °C 12.2 °C 1018.8 hPa Calm     69 % 0.0 mm
23:26 20.8 °C 12.2 °C 1019.9 hPa Calm     58 % 0.0 mm
23:31 20.7 °C 12.1 °C 1019.9 hPa NNE 2.6 km/h 2.6 km/h 58 % 0.0 mm
23:35 17.9 °C 12.1 °C 1017.8 hPa Calm     69 % 0.0 mm
23:36 20.6 °C 12.3 °C 1019.9 hPa NNE 1.9 km/h   59 % 0.0 mm
23:41 20.6 °C 12.3 °C 1019.9 hPa Calm     59 % 0.0 mm
23:45 17.3 °C 11.3 °C 1017.8 hPa Calm   3.2 km/h 68 % 0.0 mm
23:46 20.5 °C 11.9 °C 1019.9 hPa Calm     58 % 0.0 mm
23:51 20.5 °C 12.2 °C 1019.9 hPa Calm     59 % 0.0 mm
23:55 17.3 °C 11.6 °C 1018.8 hPa Calm     69 % 0.0 mm
23:56 20.5 °C 12.2 °C 1019.9 hPa Calm     59 % 0.0 mm
Meteo Sesrovires
Elogis d' Weather Underground - 3.5 mb

Guio original per  Jim McMurry - jmcmurry@mwt.net Adaptat per a la plantilla per  Wim van der Kuil - Leuven-Template.eu

Trobareu la nostra informacio del temps tambe a:

Weather Underground

AWEKAS